In Rescue
 
Open Full Screen Window  High Contrast Mode
December 15, 2019 7:40 PM EST
Weather Information
Wind Direction
  ---
Wind Speed
  00 kt (0 mph)
Wind Gust
  00 kt (0 mph)
Altimeter
30.12 in
Visibility
10 SM
Temperature
-06° C
21° F
Dewpoint
-08° C
18° F
Humidity
86%
1hr Rain Fall
00.00 in.
24hr Rain Fall
00.00 in.
Sky Condition
Clear
VFR

METAR KIKW 160040Z AUTO 00000KT 10SM CLR M06/M08 A3012 RMK AO2 T10651085

FAA Disclaimer: The data displayed is for advisory purposes only and is not to be used for flight planning or operations.